createdAt,value
2018-03-20T00:00:10.427Z,19.33
2018-03-20T00:02:38.759Z,15.57
2018-03-20T00:05:08.086Z,18.42
2018-03-20T00:07:36.520Z,16.95
2018-03-20T00:10:05.568Z,17.40
2018-03-20T00:12:33.838Z,18.83
2018-03-20T00:15:02.322Z,16.48
2018-03-20T00:17:30.714Z,13.30
2018-03-20T00:19:59.013Z,17.83
2018-03-20T00:22:27.310Z,19.48
2018-03-20T00:24:55.740Z,14.70
2018-03-20T00:27:24.064Z,15.65
2018-03-20T00:29:52.496Z,19.90
2018-03-20T00:32:20.878Z,17.48
2018-03-20T00:34:49.192Z,15.30
2018-03-20T00:37:17.709Z,17.70
2018-03-20T00:39:46.011Z,22.10
2018-03-20T00:42:14.358Z,19.25
2018-03-20T00:44:42.647Z,20.25
2018-03-20T00:47:11.081Z,16.23
2018-03-20T00:49:40.218Z,19.92
2018-03-20T00:52:08.503Z,19.02
2018-03-20T00:54:36.862Z,22.25
2018-03-20T00:57:05.146Z,17.40
2018-03-20T00:59:33.505Z,14.52
2018-03-20T01:02:01.885Z,20.37
2018-03-20T01:04:30.202Z,16.73
2018-03-20T01:06:58.479Z,17.00
2018-03-20T01:09:26.801Z,28.95
2018-03-20T01:11:55.992Z,24.02
2018-03-20T01:14:24.364Z,23.35
2018-03-20T01:16:53.399Z,26.87
2018-03-20T01:19:21.799Z,33.65
2018-03-20T01:21:51.392Z,27.23
2018-03-20T01:24:19.674Z,36.33
2018-03-20T01:26:48.020Z,28.35
2018-03-20T01:29:16.483Z,21.87
2018-03-20T01:31:44.955Z,21.42
2018-03-20T01:34:14.176Z,21.80
2018-03-20T01:36:43.000Z,22.60
2018-03-20T01:39:11.323Z,20.92
2018-03-20T01:41:39.616Z,20.48
2018-03-20T01:44:08.199Z,18.73
2018-03-20T01:46:36.487Z,16.45
2018-03-20T01:49:04.774Z,15.65
2018-03-20T01:51:33.122Z,20.62
2018-03-20T01:54:01.554Z,14.25
2018-03-20T01:56:29.885Z,17.62
2018-03-20T01:58:58.384Z,15.95
2018-03-20T02:01:26.682Z,17.17
2018-03-20T02:03:54.945Z,17.35
2018-03-20T02:06:23.851Z,19.27
2018-03-20T02:08:52.889Z,17.33
2018-03-20T02:11:21.228Z,14.93
2018-03-20T02:13:50.272Z,17.85
2018-03-20T02:16:18.547Z,18.83
2018-03-20T02:18:46.839Z,19.42
2018-03-20T02:21:15.247Z,17.23
2018-03-20T02:23:44.314Z,19.70
2018-03-20T02:26:12.670Z,17.27
2018-03-20T02:28:40.968Z,19.65
2018-03-20T02:31:09.261Z,16.98
2018-03-20T02:33:37.543Z,14.43
2018-03-20T02:36:06.593Z,21.05
2018-03-20T02:38:34.926Z,16.20
2018-03-20T02:41:04.065Z,14.80
2018-03-20T02:43:32.372Z,17.08
2018-03-20T02:46:00.675Z,16.48
2018-03-20T02:48:29.809Z,16.60
2018-03-20T02:50:58.086Z,17.20
2018-03-20T02:53:26.511Z,19.02
2018-03-20T02:55:55.541Z,14.95
2018-03-20T02:58:23.835Z,14.23
2018-03-20T03:00:52.119Z,16.10
2018-03-20T03:03:20.427Z,18.98
2018-03-20T03:05:49.470Z,13.52
2018-03-20T03:08:17.753Z,17.73
2018-03-20T03:10:46.060Z,16.77
2018-03-20T03:13:14.352Z,19.60
2018-03-20T03:15:43.506Z,20.42
2018-03-20T03:18:11.803Z,20.40
2018-03-20T03:20:41.649Z,15.73
2018-03-20T03:23:10.686Z,15.45
2018-03-20T03:25:39.048Z,16.30
2018-03-20T03:28:07.556Z,15.13
2018-03-20T03:30:35.832Z,17.87
2018-03-20T03:33:04.093Z,19.48
2018-03-20T03:35:32.408Z,18.35
2018-03-20T03:38:01.459Z,16.25
2018-03-20T03:40:29.763Z,16.80
2018-03-20T03:42:58.058Z,14.30
2018-03-20T03:45:26.485Z,17.60
2018-03-20T03:47:54.763Z,15.68
2018-03-20T03:50:23.030Z,17.35
2018-03-20T03:52:51.357Z,14.00
2018-03-20T03:55:20.466Z,15.55
2018-03-20T03:57:48.742Z,14.15
2018-03-20T04:00:17.120Z,14.65
2018-03-20T04:02:45.416Z,14.18
2018-03-20T04:05:14.325Z,19.05
2018-03-20T04:07:42.596Z,13.23
2018-03-20T04:10:10.867Z,14.38
2018-03-20T04:12:39.155Z,12.57
2018-03-20T04:15:07.517Z,15.68
2018-03-20T04:17:35.774Z,16.70
2018-03-20T04:20:04.456Z,14.75
2018-03-20T04:22:32.743Z,11.25
2018-03-20T04:25:01.026Z,16.25
2018-03-20T04:27:29.307Z,19.37
2018-03-20T04:29:57.669Z,21.55
2018-03-20T04:32:25.956Z,15.65
2018-03-20T04:34:54.257Z,18.70
2018-03-20T04:37:22.524Z,19.00
2018-03-20T04:39:50.844Z,14.73
2018-03-20T04:42:19.115Z,14.98
2018-03-20T04:44:48.180Z,20.42
2018-03-20T04:47:16.517Z,21.90
2018-03-20T04:49:44.791Z,16.40
2018-03-20T04:52:13.144Z,14.02
2018-03-20T04:54:41.424Z,17.85
2018-03-20T04:57:09.742Z,18.73
2018-03-20T04:59:38.053Z,17.02
2018-03-20T05:02:06.417Z,17.17
2018-03-20T05:04:34.686Z,18.17
2018-03-20T05:07:02.977Z,17.90
2018-03-20T05:09:32.003Z,21.73
2018-03-20T05:12:00.440Z,16.55
2018-03-20T05:14:28.744Z,15.80
2018-03-20T05:16:57.818Z,13.88
2018-03-20T05:22:43.037Z,15.25
2018-03-20T05:25:11.697Z,16.58
2018-03-20T05:27:40.762Z,18.80
2018-03-20T05:30:09.053Z,15.38
2018-03-20T05:32:39.783Z,18.05
2018-03-20T05:35:09.090Z,17.05
2018-03-20T05:37:37.436Z,17.60
2018-03-20T05:40:05.995Z,21.92
2018-03-20T05:42:34.264Z,22.00
2018-03-20T05:45:02.641Z,18.23
2018-03-20T05:50:39.831Z,18.35
2018-03-20T05:53:08.842Z,22.50
2018-03-20T05:55:37.416Z,17.52
2018-03-20T05:58:05.785Z,24.75
2018-03-20T06:00:34.078Z,23.70
2018-03-20T06:03:02.343Z,26.50
2018-03-20T06:05:30.620Z,21.48
2018-03-20T06:07:59.117Z,30.70
2018-03-20T06:10:28.211Z,27.60
2018-03-20T06:12:56.515Z,20.48
2018-03-20T06:15:24.814Z,21.12
2018-03-20T06:17:54.013Z,21.70
2018-03-20T06:20:23.107Z,19.75
2018-03-20T06:22:52.175Z,18.05
2018-03-20T06:25:20.608Z,16.15
2018-03-20T06:27:48.932Z,19.60
2018-03-20T06:30:17.444Z,24.42
2018-03-20T06:32:46.512Z,16.95
2018-03-20T06:35:15.619Z,20.52
2018-03-20T06:37:44.818Z,20.62
2018-03-20T06:40:13.334Z,19.60
2018-03-20T06:42:41.707Z,22.00
2018-03-20T06:45:10.191Z,19.05
2018-03-20T06:47:38.814Z,17.15
2018-03-20T06:50:07.279Z,22.80
2018-03-20T06:52:36.097Z,17.33
2018-03-20T06:55:05.135Z,20.17
2018-03-20T06:57:33.614Z,17.75
2018-03-20T07:00:02.001Z,19.08
2018-03-20T07:02:30.305Z,19.98
2018-03-20T07:04:58.706Z,21.25
2018-03-20T07:07:27.951Z,17.73
2018-03-20T07:09:56.408Z,22.52
2018-03-20T07:12:26.147Z,21.50
2018-03-20T07:14:54.454Z,21.52
2018-03-20T07:17:23.262Z,27.05
2018-03-20T07:19:51.781Z,20.65
2018-03-20T07:22:21.161Z,23.23
2018-03-20T07:24:50.789Z,27.17
2018-03-20T07:27:20.720Z,19.00
2018-03-20T07:29:49.077Z,24.92
2018-03-20T07:32:17.417Z,21.83
2018-03-20T07:34:46.557Z,25.02
2018-03-20T07:37:15.134Z,25.33
2018-03-20T07:39:43.620Z,24.12
2018-03-20T07:42:11.895Z,19.40
2018-03-20T07:44:40.180Z,32.13
2018-03-20T07:47:08.452Z,22.27
2018-03-20T07:49:37.687Z,28.02
2018-03-20T07:52:06.138Z,21.65
2018-03-20T07:54:34.493Z,22.33
2018-03-20T07:57:03.183Z,21.12
2018-03-20T07:59:31.628Z,23.12
2018-03-20T08:02:00.034Z,26.75
2018-03-20T08:04:28.416Z,25.30
2018-03-20T08:06:56.696Z,24.02
2018-03-20T08:09:25.085Z,24.98
2018-03-20T08:11:53.433Z,18.48
2018-03-20T08:14:21.733Z,23.67
2018-03-20T08:16:50.417Z,23.33
2018-03-20T08:19:18.846Z,21.70
2018-03-20T08:21:47.124Z,22.98
2018-03-20T08:24:15.530Z,20.45
2018-03-20T08:26:44.035Z,24.98
2018-03-20T08:29:13.736Z,18.85
2018-03-20T08:31:43.006Z,25.60
2018-03-20T08:34:11.288Z,18.62
2018-03-20T08:36:39.780Z,22.87
2018-03-20T08:39:08.835Z,23.62
2018-03-20T08:41:37.442Z,28.58
2018-03-20T08:44:05.800Z,24.35
2018-03-20T08:46:34.207Z,28.23
2018-03-20T08:49:02.583Z,23.48
2018-03-20T08:51:32.593Z,19.05
2018-03-20T08:54:01.420Z,18.45
2018-03-20T08:56:29.841Z,17.48
2018-03-20T08:58:58.117Z,20.50
2018-03-20T09:01:26.469Z,16.65
2018-03-20T09:03:54.769Z,18.70
2018-03-20T09:06:23.044Z,22.92
2018-03-20T09:08:51.428Z,20.15
2018-03-20T09:11:19.830Z,17.90
2018-03-20T09:13:48.358Z,29.10
2018-03-20T09:16:18.548Z,16.17
2018-03-20T09:18:46.929Z,22.80
2018-03-20T09:21:15.263Z,15.65
2018-03-20T09:23:43.635Z,19.30
2018-03-20T09:26:12.738Z,15.30
2018-03-20T09:28:41.037Z,15.68
2018-03-20T09:31:09.328Z,18.15
2018-03-20T09:33:37.626Z,13.23
2018-03-20T09:36:05.979Z,14.73
2018-03-20T09:38:34.320Z,16.55
2018-03-20T09:41:02.754Z,13.57
2018-03-20T09:43:32.481Z,17.33
2018-03-20T09:46:01.518Z,15.15
2018-03-20T09:48:29.783Z,17.00
2018-03-20T09:50:58.644Z,12.00
2018-03-20T09:53:26.909Z,14.05
2018-03-20T09:55:56.240Z,19.73
2018-03-20T09:58:24.590Z,12.77
2018-03-20T10:00:58.873Z,15.98
2018-03-20T10:03:27.848Z,9.77
2018-03-20T10:05:56.196Z,15.93
2018-03-20T10:08:24.506Z,10.45
2018-03-20T10:10:52.827Z,12.73
2018-03-20T10:13:21.331Z,15.88
2018-03-20T10:15:49.608Z,9.60
2018-03-20T10:18:17.978Z,11.65
2018-03-20T10:20:46.416Z,9.93
2018-03-20T10:23:15.470Z,10.40
2018-03-20T10:25:43.888Z,9.50
2018-03-20T10:28:12.942Z,8.88
2018-03-20T10:30:42.433Z,12.02
2018-03-20T10:33:14.614Z,18.02
2018-03-20T10:35:42.923Z,12.77
2018-03-20T10:38:12.172Z,8.63
2018-03-20T10:40:40.445Z,10.55
2018-03-20T10:43:08.720Z,10.48
2018-03-20T10:45:38.162Z,12.93
2018-03-20T10:48:06.433Z,10.40
2018-03-20T10:50:34.821Z,32.55
2018-03-20T10:53:04.566Z,15.25
2018-03-20T10:55:32.885Z,13.98
2018-03-20T10:58:01.192Z,9.85
2018-03-20T11:00:35.662Z,10.10
2018-03-20T11:03:08.875Z,10.10
2018-03-20T11:05:38.678Z,11.60
2018-03-20T11:08:06.975Z,12.60
2018-03-20T11:10:36.099Z,32.50
2018-03-20T11:13:06.152Z,43.33
2018-03-20T11:15:34.449Z,11.90
2018-03-20T11:18:02.862Z,11.10
2018-03-20T11:20:32.557Z,11.85
2018-03-20T11:23:01.070Z,13.50
2018-03-20T11:25:29.397Z,16.62
2018-03-20T11:27:59.311Z,8.80
2018-03-20T11:30:27.706Z,9.75
2018-03-20T11:32:56.524Z,11.80
2018-03-20T11:35:24.820Z,10.48
2018-03-20T11:37:53.065Z,12.45
2018-03-20T11:40:21.535Z,11.90
2018-03-20T11:42:51.390Z,13.83
2018-03-20T11:45:20.180Z,10.27
2018-03-20T11:47:49.981Z,14.75
2018-03-20T11:50:18.999Z,11.60
2018-03-20T11:52:47.813Z,13.45
2018-03-20T11:55:16.554Z,12.05
2018-03-20T11:57:46.387Z,14.38
2018-03-20T12:00:16.563Z,11.77
2018-03-20T12:02:46.448Z,11.68
2018-03-20T12:05:15.280Z,11.82
2018-03-20T12:07:55.518Z,10.75
2018-03-20T12:10:24.685Z,9.82
2018-03-20T12:12:53.741Z,16.27
2018-03-20T12:15:23.051Z,10.23
2018-03-20T12:17:51.816Z,10.57
2018-03-20T12:20:20.818Z,11.35
2018-03-20T12:22:49.996Z,12.65
2018-03-20T12:25:20.315Z,11.63
2018-03-20T12:27:48.832Z,12.13
2018-03-20T12:30:18.621Z,8.60
2018-03-20T12:32:48.229Z,14.15
2018-03-20T12:35:17.052Z,10.57
2018-03-20T12:37:45.615Z,10.63
2018-03-20T12:40:15.318Z,12.25
2018-03-20T12:42:44.185Z,10.13
2018-03-20T12:45:13.081Z,14.68
2018-03-20T12:47:42.572Z,16.37
2018-03-20T12:50:13.066Z,11.82
2018-03-20T12:52:42.428Z,11.10
2018-03-20T12:55:11.951Z,13.25
2018-03-20T12:57:41.736Z,10.52
2018-03-20T13:00:10.263Z,11.82
2018-03-20T13:02:39.521Z,14.50
2018-03-20T13:05:09.122Z,12.32
2018-03-20T13:07:38.617Z,11.55
2018-03-20T13:10:08.529Z,11.02
2018-03-20T13:12:37.212Z,10.77
2018-03-20T13:15:06.103Z,10.18
2018-03-20T13:17:34.591Z,19.08
2018-03-20T13:20:03.862Z,13.88
2018-03-20T13:22:32.281Z,10.75
2018-03-20T13:25:02.035Z,10.68
2018-03-20T13:27:32.103Z,10.98
2018-03-20T13:30:01.280Z,11.80
2018-03-20T13:32:30.093Z,11.05
2018-03-20T13:34:59.042Z,15.50
2018-03-20T13:37:27.611Z,12.07
2018-03-20T13:39:57.551Z,13.35
2018-03-20T13:42:26.790Z,12.68
2018-03-20T13:44:56.080Z,14.18
2018-03-20T13:47:24.777Z,14.93
2018-03-20T13:49:54.267Z,13.13
2018-03-20T13:52:23.256Z,14.98
2018-03-20T13:54:52.152Z,13.07
2018-03-20T13:57:20.910Z,11.07
2018-03-20T13:59:50.534Z,17.80
2018-03-20T14:02:19.812Z,14.48
2018-03-20T14:04:49.490Z,15.63
2018-03-20T14:07:18.764Z,15.85
2018-03-20T14:09:47.529Z,12.10
2018-03-20T14:12:16.282Z,14.65
2018-03-20T14:14:44.792Z,20.10
2018-03-20T14:17:14.518Z,15.00
2018-03-20T14:19:43.837Z,16.48
2018-03-20T14:22:14.749Z,22.70
2018-03-20T14:24:44.388Z,16.73
2018-03-20T14:27:14.219Z,15.68
2018-03-20T14:29:42.795Z,17.37
2018-03-20T14:32:13.043Z,16.27
2018-03-20T14:34:43.194Z,18.33
2018-03-20T14:37:12.253Z,18.37
2018-03-20T14:39:41.246Z,16.75
2018-03-20T14:42:10.401Z,14.98
2018-03-20T14:44:40.596Z,20.02
2018-03-20T14:47:09.724Z,15.05
2018-03-20T14:49:39.843Z,16.15
2018-03-20T14:52:09.769Z,15.25
2018-03-20T14:54:38.996Z,19.20
2018-03-20T14:57:08.490Z,20.70
2018-03-20T14:59:37.732Z,21.83
2018-03-20T15:02:06.793Z,22.75
2018-03-20T15:04:37.222Z,16.58
2018-03-20T15:07:06.102Z,19.52
2018-03-20T15:09:34.836Z,16.35
2018-03-20T15:12:03.734Z,21.33
2018-03-20T15:14:32.517Z,23.08
2018-03-20T15:17:02.673Z,18.42
2018-03-20T15:19:31.616Z,19.30
2018-03-20T15:25:01.988Z,22.30
2018-03-20T15:27:31.586Z,28.40
2018-03-20T15:30:01.022Z,33.40
2018-03-20T15:32:34.856Z,23.15
2018-03-20T15:35:03.962Z,27.00
2018-03-20T15:37:33.118Z,20.30
2018-03-20T15:40:02.746Z,25.88
2018-03-20T15:42:31.501Z,24.73
2018-03-20T15:45:00.897Z,20.25
2018-03-20T15:47:30.020Z,17.33
2018-03-20T15:50:00.502Z,25.20
2018-03-20T15:52:31.223Z,20.77
2018-03-20T15:55:00.039Z,24.20
2018-03-20T15:57:29.685Z,23.42
2018-03-20T16:00:00.423Z,23.50
2018-03-20T16:02:30.305Z,24.67
2018-03-20T16:04:59.429Z,23.98
2018-03-20T16:07:29.437Z,27.25
2018-03-20T16:09:58.500Z,27.67
2018-03-20T16:12:27.700Z,25.23
2018-03-20T16:14:57.536Z,26.58
2018-03-20T16:17:29.609Z,22.73
2018-03-20T16:19:58.649Z,23.60
2018-03-20T16:22:27.483Z,26.75
2018-03-20T16:24:56.716Z,24.50
2018-03-20T16:27:25.580Z,27.73
2018-03-20T16:29:56.546Z,23.70
2018-03-20T16:32:24.888Z,25.58
2018-03-20T16:34:53.520Z,28.30
2018-03-20T16:37:22.366Z,28.77
2018-03-20T16:39:51.145Z,23.45
2018-03-20T16:42:19.818Z,23.23
2018-03-20T16:44:48.683Z,23.30
2018-03-20T16:47:17.575Z,21.90
2018-03-20T16:49:47.155Z,22.35
2018-03-20T16:52:17.691Z,22.87
2018-03-20T16:54:47.540Z,23.70
2018-03-20T16:57:15.997Z,23.05
2018-03-20T16:59:44.586Z,20.00
2018-03-20T17:02:14.191Z,24.10
2018-03-20T17:04:42.900Z,24.52
2018-03-20T17:07:11.471Z,20.92
2018-03-20T17:09:40.352Z,27.73
2018-03-20T17:12:11.788Z,21.60
2018-03-20T17:14:41.326Z,22.02
2018-03-20T17:17:10.994Z,23.35
2018-03-20T17:19:40.214Z,24.37
2018-03-20T17:22:09.788Z,23.08
2018-03-20T17:24:40.077Z,38.20
2018-03-20T17:27:09.712Z,40.20
2018-03-20T17:29:39.153Z,21.60
2018-03-20T17:32:07.595Z,24.12
2018-03-20T17:34:36.853Z,21.25
2018-03-20T17:37:05.701Z,23.75
2018-03-20T17:39:34.104Z,14.82
2018-03-20T17:42:03.098Z,11.20
2018-03-20T17:44:31.845Z,8.70
2018-03-20T17:47:01.881Z,6.70
2018-03-20T17:49:30.628Z,7.90
2018-03-20T17:52:00.697Z,8.18
2018-03-20T17:54:29.574Z,5.68
2018-03-20T17:56:59.444Z,7.28
2018-03-20T17:59:29.993Z,5.75
2018-03-20T18:01:59.784Z,7.50
2018-03-20T18:04:28.966Z,6.78
2018-03-20T18:06:58.936Z,7.10
2018-03-20T18:09:28.446Z,5.93
2018-03-20T18:11:58.568Z,6.30
2018-03-20T18:14:27.551Z,7.65
2018-03-20T18:16:57.075Z,4.95
2018-03-20T18:19:25.707Z,7.37
2018-03-20T18:21:55.353Z,5.80
2018-03-20T18:24:24.038Z,5.00
2018-03-20T18:26:52.660Z,5.32
2018-03-20T18:29:22.253Z,7.03
2018-03-20T18:31:51.046Z,7.00
2018-03-20T18:34:20.652Z,4.80
2018-03-20T18:36:50.118Z,4.95
2018-03-20T18:39:19.918Z,4.22
2018-03-20T18:41:49.093Z,6.57
2018-03-20T18:44:19.345Z,3.65
2018-03-20T18:46:47.675Z,8.00
2018-03-20T18:49:16.310Z,3.85
2018-03-20T18:51:45.954Z,3.85
2018-03-20T18:54:15.335Z,5.55
2018-03-20T18:56:43.729Z,4.53
2018-03-20T18:59:14.478Z,4.90
2018-03-20T19:01:43.943Z,5.55
2018-03-20T19:04:13.850Z,5.82
2018-03-20T19:06:42.934Z,4.82
2018-03-20T19:09:11.637Z,5.15
2018-03-20T19:11:41.398Z,4.75
2018-03-20T19:14:11.861Z,4.22
2018-03-20T19:16:41.055Z,3.97
2018-03-20T19:19:10.554Z,4.40
2018-03-20T19:21:44.899Z,4.00
2018-03-20T19:24:18.453Z,4.03
2018-03-20T19:26:47.991Z,3.85
2018-03-20T19:29:17.624Z,3.75
2018-03-20T19:31:46.463Z,4.47
2018-03-20T19:34:15.079Z,4.07
2018-03-20T19:36:43.549Z,3.28
2018-03-20T19:39:12.100Z,4.12
2018-03-20T19:41:41.176Z,3.42
2018-03-20T19:44:10.161Z,3.42
2018-03-20T19:46:39.948Z,4.60
2018-03-20T19:49:10.683Z,4.18
2018-03-20T19:51:39.525Z,12.23
2018-03-20T19:54:09.821Z,7.50
2018-03-20T19:56:38.463Z,4.35
2018-03-20T19:59:09.022Z,5.22
2018-03-20T20:01:37.266Z,7.37
2018-03-20T20:04:06.433Z,4.65
2018-03-20T20:06:34.765Z,3.95
2018-03-20T20:09:03.803Z,4.40
2018-03-20T20:11:32.349Z,4.37
2018-03-20T20:14:01.400Z,3.47
2018-03-20T20:16:29.740Z,5.62
2018-03-20T20:18:58.156Z,11.43
2018-03-20T20:21:26.550Z,4.80
2018-03-20T20:23:55.400Z,7.93
2018-03-20T20:26:24.374Z,6.43
2018-03-20T20:28:53.485Z,4.43
2018-03-20T20:31:23.015Z,7.47
2018-03-20T20:33:52.514Z,7.22
2018-03-20T20:36:20.938Z,11.20
2018-03-20T20:38:50.323Z,14.82
2018-03-20T20:41:19.718Z,13.60
2018-03-20T20:43:48.401Z,13.60
2018-03-20T20:46:16.708Z,10.45
2018-03-20T20:48:45.015Z,6.07
2018-03-20T20:51:13.489Z,11.20
2018-03-20T20:53:41.813Z,21.62
2018-03-20T20:56:11.606Z,46.53
2018-03-20T20:58:39.910Z,47.70
2018-03-20T21:01:09.888Z,41.13
2018-03-20T21:03:38.280Z,19.60
2018-03-20T21:06:07.516Z,17.12
2018-03-20T21:08:35.962Z,9.00
2018-03-20T21:11:04.259Z,7.18
2018-03-20T21:13:33.492Z,4.80
2018-03-20T21:16:01.808Z,5.28
2018-03-20T21:18:30.108Z,4.85
2018-03-20T21:20:58.585Z,4.62
2018-03-20T21:23:27.672Z,4.75
2018-03-20T21:25:56.718Z,5.20
2018-03-20T21:28:25.014Z,6.50
2018-03-20T21:30:53.390Z,7.25
2018-03-20T21:33:22.226Z,4.62
2018-03-20T21:35:52.519Z,6.57
2018-03-20T21:38:20.964Z,7.82
2018-03-20T21:40:49.417Z,12.50
2018-03-20T21:43:17.727Z,20.58
2018-03-20T21:45:46.058Z,22.75
2018-03-20T21:48:15.659Z,22.87
2018-03-20T21:50:45.967Z,14.73
2018-03-20T21:53:15.199Z,8.60
2018-03-20T21:55:43.503Z,11.05
2018-03-20T21:58:11.837Z,8.63
2018-03-20T22:00:40.257Z,15.52
2018-03-20T22:03:09.497Z,16.77
2018-03-20T22:05:38.784Z,7.05
2018-03-20T22:08:08.175Z,6.18
2018-03-20T22:10:37.798Z,7.12
2018-03-20T22:13:10.073Z,4.78
2018-03-20T22:15:39.320Z,4.43
2018-03-20T22:18:07.800Z,4.15
2018-03-20T22:20:38.218Z,4.37
2018-03-20T22:23:06.644Z,6.35
2018-03-20T22:25:35.109Z,6.45
2018-03-20T22:28:03.372Z,5.10
2018-03-20T22:30:31.644Z,6.37
2018-03-20T22:33:01.024Z,8.25
2018-03-20T22:35:30.569Z,6.57
2018-03-20T22:37:59.156Z,10.75
2018-03-20T22:40:27.951Z,6.70
2018-03-20T22:42:56.408Z,6.32
2018-03-20T22:45:25.014Z,6.32
2018-03-20T22:47:58.214Z,4.65
2018-03-20T22:50:27.489Z,7.72
2018-03-20T22:52:56.738Z,5.53
2018-03-20T22:55:25.172Z,4.72
2018-03-20T22:57:54.245Z,4.07
2018-03-20T23:00:29.270Z,5.72
2018-03-20T23:02:57.545Z,4.72
2018-03-20T23:05:25.828Z,4.35
2018-03-20T23:07:54.202Z,4.12
2018-03-20T23:10:22.520Z,7.37
2018-03-20T23:12:51.593Z,6.87
2018-03-20T23:15:20.176Z,5.25
2018-03-20T23:17:48.619Z,4.85
2018-03-20T23:20:16.924Z,5.28
2018-03-20T23:22:45.276Z,7.25
2018-03-20T23:25:13.610Z,6.68
2018-03-20T23:27:41.936Z,3.92
2018-03-20T23:30:10.541Z,5.70
2018-03-20T23:32:40.489Z,3.97
2018-03-20T23:35:09.004Z,4.30
2018-03-20T23:37:37.332Z,4.55
2018-03-20T23:40:06.025Z,4.72
2018-03-20T23:42:34.413Z,3.50
2018-03-20T23:45:02.797Z,3.87
2018-03-20T23:47:31.667Z,3.62
2018-03-20T23:50:01.011Z,4.95
2018-03-20T23:52:29.376Z,4.50
2018-03-20T23:54:58.708Z,4.12
2018-03-20T23:57:27.169Z,3.67
2018-03-20T23:59:55.511Z,5.85
